sensor_id;sensor_type;location;lat;lon;timestamp;pressure;altitude;pressure_sealevel;temperature;humidity
15263;BME280;7733;51.554;13.590;2024-03-23T00:54:02;99696.16;;;14.03;91.17
15263;BME280;7733;51.554;13.590;2024-03-23T00:56:29;99689.63;;;13.89;91.19
15263;BME280;7733;51.554;13.590;2024-03-23T00:58:55;99685.56;;;13.81;92.44
15263;BME280;7733;51.554;13.590;2024-03-23T01:01:20;99685.03;;;13.94;91.03
15263;BME280;7733;51.554;13.590;2024-03-23T01:03:46;99679.16;;;13.88;92.18
15263;BME280;7733;51.554;13.590;2024-03-23T01:06:12;99677.75;;;14.23;89.52
15263;BME280;7733;51.554;13.590;2024-03-23T01:08:38;99664.59;;;14.23;89.11
15263;BME280;7733;51.554;13.590;2024-03-23T01:11:04;99670.53;;;14.06;90.29
15263;BME280;7733;51.554;13.590;2024-03-23T01:13:29;99675.84;;;14.26;88.82
15263;BME280;7733;51.554;13.590;2024-03-23T01:15:56;99670.41;;;14.09;90.15
15263;BME280;7733;51.554;13.590;2024-03-23T01:18:23;99666.66;;;13.93;90.37
15263;BME280;7733;51.554;13.590;2024-03-23T01:20:49;99678.03;;;13.72;92.16
15263;BME280;7733;51.554;13.590;2024-03-23T01:23:15;99661.63;;;13.87;91.74
15263;BME280;7733;51.554;13.590;2024-03-23T01:25:41;99660.97;;;13.80;91.38
15263;BME280;7733;51.554;13.590;2024-03-23T01:28:07;99653.06;;;14.04;90.44
15263;BME280;7733;51.554;13.590;2024-03-23T01:30:36;99652.53;;;13.72;91.65
15263;BME280;7733;51.554;13.590;2024-03-23T01:33:02;99657.91;;;13.69;92.13
15263;BME280;7733;51.554;13.590;2024-03-23T01:35:28;99653.94;;;13.81;91.31
15263;BME280;7733;51.554;13.590;2024-03-23T01:37:54;99650.69;;;13.96;90.35
15263;BME280;7733;51.554;13.590;2024-03-23T01:40:20;99641.25;;;13.90;90.29
15263;BME280;7733;51.554;13.590;2024-03-23T01:43:03;99640.41;;;13.90;90.42
15263;BME280;7733;51.554;13.590;2024-03-23T01:45:33;99638.81;;;13.86;90.63
15263;BME280;7733;51.554;13.590;2024-03-23T01:48:00;99641.50;;;13.62;91.81
15263;BME280;7733;51.554;13.590;2024-03-23T01:50:27;99632.28;;;13.73;91.79
15263;BME280;7733;51.554;13.590;2024-03-23T01:52:53;99636.50;;;13.31;92.82
15263;BME280;7733;51.554;13.590;2024-03-23T01:55:20;99622.25;;;13.37;93.67
15263;BME280;7733;51.554;13.590;2024-03-23T01:57:46;99609.50;;;13.72;91.55
15263;BME280;7733;51.554;13.590;2024-03-23T02:00:13;99613.31;;;13.86;90.51
15263;BME280;7733;51.554;13.590;2024-03-23T02:02:45;99598.22;;;13.68;90.46
15263;BME280;7733;51.554;13.590;2024-03-23T02:05:12;99600.53;;;13.76;90.51
15263;BME280;7733;51.554;13.590;2024-03-23T02:07:42;99586.88;;;13.88;89.83
15263;BME280;7733;51.554;13.590;2024-03-23T02:10:11;99595.41;;;13.73;90.07
15263;BME280;7733;51.554;13.590;2024-03-23T02:12:40;99593.56;;;13.75;91.12
15263;BME280;7733;51.554;13.590;2024-03-23T02:15:06;99577.53;;;14.01;88.77
15263;BME280;7733;51.554;13.590;2024-03-23T02:17:35;99577.34;;;13.63;89.69
15263;BME280;7733;51.554;13.590;2024-03-23T02:20:02;99566.09;;;13.80;89.51
15263;BME280;7733;51.554;13.590;2024-03-23T02:22:39;99568.13;;;13.52;91.37
15263;BME280;7733;51.554;13.590;2024-03-23T02:25:05;99560.34;;;13.70;89.79
15263;BME280;7733;51.554;13.590;2024-03-23T02:27:32;99561.78;;;13.34;91.00
15263;BME280;7733;51.554;13.590;2024-03-23T02:29:59;99556.59;;;13.76;89.62
15263;BME280;7733;51.554;13.590;2024-03-23T02:32:24;99560.19;;;13.95;88.14
15263;BME280;7733;51.554;13.590;2024-03-23T02:34:50;99558.75;;;13.88;88.29
15263;BME280;7733;51.554;13.590;2024-03-23T02:37:16;99558.81;;;13.87;88.43
15263;BME280;7733;51.554;13.590;2024-03-23T02:39:41;99551.13;;;13.59;90.52
15263;BME280;7733;51.554;13.590;2024-03-23T02:42:07;99538.72;;;13.62;90.55
15263;BME280;7733;51.554;13.590;2024-03-23T02:44:33;99546.00;;;13.56;91.54
15263;BME280;7733;51.554;13.590;2024-03-23T02:46:58;99539.66;;;13.60;90.39
15263;BME280;7733;51.554;13.590;2024-03-23T02:49:26;99536.44;;;13.75;88.73
15263;BME280;7733;51.554;13.590;2024-03-23T02:51:52;99531.88;;;13.79;88.99
15263;BME280;7733;51.554;13.590;2024-03-23T02:54:17;99530.28;;;13.96;88.44
15263;BME280;7733;51.554;13.590;2024-03-23T02:56:43;99537.53;;;13.48;89.99
15263;BME280;7733;51.554;13.590;2024-03-23T02:59:09;99542.19;;;13.41;92.32
15263;BME280;7733;51.554;13.590;2024-03-23T03:01:35;99539.63;;;13.83;89.52
15263;BME280;7733;51.554;13.590;2024-03-23T03:04:00;99536.25;;;13.36;91.66
15263;BME280;7733;51.554;13.590;2024-03-23T03:06:28;99535.94;;;12.97;94.01
15263;BME280;7733;51.554;13.590;2024-03-23T03:08:54;99535.66;;;12.33;98.29
15263;BME280;7733;51.554;13.590;2024-03-23T03:11:20;99531.31;;;12.07;97.54
15263;BME280;7733;51.554;13.590;2024-03-23T03:13:45;99537.66;;;12.26;96.27
15263;BME280;7733;51.554;13.590;2024-03-23T03:16:11;99532.78;;;12.14;93.29
15263;BME280;7733;51.554;13.590;2024-03-23T03:18:37;99544.22;;;12.13;93.05
15263;BME280;7733;51.554;13.590;2024-03-23T03:21:04;99547.63;;;12.41;92.11
15263;BME280;7733;51.554;13.590;2024-03-23T03:23:31;99537.88;;;12.45;90.60
15263;BME280;7733;51.554;13.590;2024-03-23T03:25:57;99526.16;;;12.54;89.18
15263;BME280;7733;51.554;13.590;2024-03-23T03:28:23;99521.94;;;12.25;89.48
15263;BME280;7733;51.554;13.590;2024-03-23T03:30:49;99516.56;;;12.28;88.86
15263;BME280;7733;51.554;13.590;2024-03-23T03:33:15;99521.59;;;12.09;89.29
15263;BME280;7733;51.554;13.590;2024-03-23T03:35:41;99524.91;;;12.64;87.49
15263;BME280;7733;51.554;13.590;2024-03-23T03:38:06;99525.47;;;12.72;86.29
15263;BME280;7733;51.554;13.590;2024-03-23T03:40:32;99522.81;;;12.48;88.29
15263;BME280;7733;51.554;13.590;2024-03-23T03:42:58;99519.91;;;12.56;87.11
15263;BME280;7733;51.554;13.590;2024-03-23T03:45:23;99506.50;;;12.87;85.09
15263;BME280;7733;51.554;13.590;2024-03-23T03:47:49;99510.09;;;12.85;84.86
15263;BME280;7733;51.554;13.590;2024-03-23T03:50:15;99514.28;;;12.90;84.27
15263;BME280;7733;51.554;13.590;2024-03-23T03:52:40;99505.06;;;13.02;83.72
15263;BME280;7733;51.554;13.590;2024-03-23T03:55:14;99500.81;;;12.98;83.77
15263;BME280;7733;51.554;13.590;2024-03-23T03:57:40;99503.50;;;12.49;84.97
15263;BME280;7733;51.554;13.590;2024-03-23T04:00:07;99493.91;;;12.72;83.75
15263;BME280;7733;51.554;13.590;2024-03-23T04:02:39;99496.66;;;12.69;83.46
15263;BME280;7733;51.554;13.590;2024-03-23T04:05:06;99482.13;;;12.82;83.36
15263;BME280;7733;51.554;13.590;2024-03-23T04:07:33;99489.59;;;12.93;82.39
15263;BME280;7733;51.554;13.590;2024-03-23T04:09:59;99477.88;;;13.01;81.58
15263;BME280;7733;51.554;13.590;2024-03-23T04:12:25;99473.09;;;12.66;83.27
15263;BME280;7733;51.554;13.590;2024-03-23T04:14:51;99482.31;;;12.29;84.38
15263;BME280;7733;51.554;13.590;2024-03-23T04:17:16;99480.50;;;12.55;84.27
15263;BME280;7733;51.554;13.590;2024-03-23T04:19:44;99473.53;;;12.54;84.47
15263;BME280;7733;51.554;13.590;2024-03-23T04:22:09;99469.22;;;12.98;82.67
15263;BME280;7733;51.554;13.590;2024-03-23T04:24:35;99474.28;;;13.04;82.22
15263;BME280;7733;51.554;13.590;2024-03-23T04:27:01;99475.59;;;12.92;82.54
15263;BME280;7733;51.554;13.590;2024-03-23T04:29:26;99469.28;;;12.96;82.13
15263;BME280;7733;51.554;13.590;2024-03-23T04:31:52;99464.81;;;12.98;81.67
15263;BME280;7733;51.554;13.590;2024-03-23T04:34:18;99451.56;;;12.78;82.28
15263;BME280;7733;51.554;13.590;2024-03-23T04:36:44;99443.13;;;12.46;84.15
15263;BME280;7733;51.554;13.590;2024-03-23T04:39:10;99440.59;;;12.67;83.71
15263;BME280;7733;51.554;13.590;2024-03-23T04:41:35;99438.91;;;12.66;83.94
15263;BME280;7733;51.554;13.590;2024-03-23T04:44:01;99435.44;;;12.87;82.77
15263;BME280;7733;51.554;13.590;2024-03-23T04:46:27;99437.50;;;12.79;82.51
15263;BME280;7733;51.554;13.590;2024-03-23T04:48:53;99437.72;;;12.73;82.96
15263;BME280;7733;51.554;13.590;2024-03-23T04:51:22;99435.13;;;12.49;83.28
15263;BME280;7733;51.554;13.590;2024-03-23T04:53:48;99430.09;;;12.43;84.32
15263;BME280;7733;51.554;13.590;2024-03-23T04:56:15;99438.44;;;12.55;83.73
15263;BME280;7733;51.554;13.590;2024-03-23T04:58:42;99426.94;;;12.57;82.73
15263;BME280;7733;51.554;13.590;2024-03-23T05:01:09;99414.75;;;12.55;83.04
15263;BME280;7733;51.554;13.590;2024-03-23T05:03:34;99415.91;;;12.47;81.87
15263;BME280;7733;51.554;13.590;2024-03-23T05:06:00;99412.19;;;12.30;84.04
15263;BME280;7733;51.554;13.590;2024-03-23T05:08:26;99413.88;;;12.07;84.81
15263;BME280;7733;51.554;13.590;2024-03-23T05:10:51;99403.44;;;12.53;82.44
15263;BME280;7733;51.554;13.590;2024-03-23T05:13:17;99399.66;;;12.36;82.65
15263;BME280;7733;51.554;13.590;2024-03-23T05:15:43;99371.53;;;12.15;83.75
15263;BME280;7733;51.554;13.590;2024-03-23T05:18:09;99353.59;;;12.26;83.23
15263;BME280;7733;51.554;13.590;2024-03-23T05:20:35;99334.16;;;12.30;82.81
15263;BME280;7733;51.554;13.590;2024-03-23T05:23:01;99335.19;;;12.26;82.89
15263;BME280;7733;51.554;13.590;2024-03-23T05:25:27;99325.97;;;11.91;84.73
15263;BME280;7733;51.554;13.590;2024-03-23T05:27:53;99325.13;;;11.91;84.43
15263;BME280;7733;51.554;13.590;2024-03-23T05:30:19;99333.00;;;11.91;84.71
15263;BME280;7733;51.554;13.590;2024-03-23T05:32:44;99336.31;;;12.19;83.48
15263;BME280;7733;51.554;13.590;2024-03-23T05:35:10;99345.66;;;12.28;83.30
15263;BME280;7733;51.554;13.590;2024-03-23T05:37:36;99339.69;;;12.46;82.13
15263;BME280;7733;51.554;13.590;2024-03-23T05:40:03;99338.88;;;12.21;82.55
15263;BME280;7733;51.554;13.590;2024-03-23T05:42:29;99330.44;;;12.12;83.36
15263;BME280;7733;51.554;13.590;2024-03-23T05:44:55;99300.50;;;11.93;83.34
15263;BME280;7733;51.554;13.590;2024-03-23T05:47:21;99293.59;;;12.14;83.19
15263;BME280;7733;51.554;13.590;2024-03-23T05:49:46;99281.47;;;12.10;83.10
15263;BME280;7733;51.554;13.590;2024-03-23T05:52:13;99292.22;;;12.27;82.38
15263;BME280;7733;51.554;13.590;2024-03-23T05:54:39;99283.88;;;12.16;82.54
15263;BME280;7733;51.554;13.590;2024-03-23T05:57:05;99275.06;;;12.17;82.67
15263;BME280;7733;51.554;13.590;2024-03-23T05:59:33;99276.28;;;12.08;83.11
15263;BME280;7733;51.554;13.590;2024-03-23T06:01:59;99274.91;;;11.98;83.06
15263;BME280;7733;51.554;13.590;2024-03-23T06:04:25;99280.31;;;12.17;82.36
15263;BME280;7733;51.554;13.590;2024-03-23T06:06:51;99257.78;;;12.33;81.36
15263;BME280;7733;51.554;13.590;2024-03-23T06:09:20;99256.66;;;12.17;82.21
15263;BME280;7733;51.554;13.590;2024-03-23T06:11:46;99258.56;;;12.35;82.19
15263;BME280;7733;51.554;13.590;2024-03-23T06:14:12;99259.44;;;12.36;81.24
15263;BME280;7733;51.554;13.590;2024-03-23T06:16:38;99250.16;;;12.27;81.82
15263;BME280;7733;51.554;13.590;2024-03-23T06:19:04;99251.59;;;12.34;82.01
15263;BME280;7733;51.554;13.590;2024-03-23T06:21:32;99262.50;;;12.25;81.89
15263;BME280;7733;51.554;13.590;2024-03-23T06:23:58;99259.75;;;12.28;81.83
15263;BME280;7733;51.554;13.590;2024-03-23T06:26:24;99248.56;;;12.45;81.38
15263;BME280;7733;51.554;13.590;2024-03-23T06:28:50;99248.25;;;12.31;82.25
15263;BME280;7733;51.554;13.590;2024-03-23T06:31:15;99241.09;;;12.56;80.79
15263;BME280;7733;51.554;13.590;2024-03-23T06:33:41;99228.13;;;12.52;80.38
15263;BME280;7733;51.554;13.590;2024-03-23T06:36:10;99209.66;;;12.31;81.53
15263;BME280;7733;51.554;13.590;2024-03-23T06:38:39;99224.59;;;12.31;82.37
15263;BME280;7733;51.554;13.590;2024-03-23T06:41:05;99223.84;;;12.27;81.95
15263;BME280;7733;51.554;13.590;2024-03-23T06:43:31;99222.59;;;11.92;83.22
15263;BME280;7733;51.554;13.590;2024-03-23T06:45:57;99207.41;;;12.22;82.34
15263;BME280;7733;51.554;13.590;2024-03-23T06:48:23;99211.50;;;12.29;82.26
15263;BME280;7733;51.554;13.590;2024-03-23T06:50:49;99223.97;;;12.46;81.80
15263;BME280;7733;51.554;13.590;2024-03-23T06:53:15;99210.13;;;12.41;81.79
15263;BME280;7733;51.554;13.590;2024-03-23T06:55:41;99217.72;;;12.48;81.10
15263;BME280;7733;51.554;13.590;2024-03-23T06:58:08;99211.44;;;12.09;83.21
15263;BME280;7733;51.554;13.590;2024-03-23T07:00:34;99201.63;;;11.91;83.88
15263;BME280;7733;51.554;13.590;2024-03-23T07:03:00;99190.34;;;12.10;83.15
15263;BME280;7733;51.554;13.590;2024-03-23T07:05:26;99178.72;;;11.94;84.84
15263;BME280;7733;51.554;13.590;2024-03-23T07:07:51;99178.72;;;11.94;84.17
15263;BME280;7733;51.554;13.590;2024-03-23T07:10:17;99171.63;;;12.18;83.41
15263;BME280;7733;51.554;13.590;2024-03-23T07:12:43;99170.91;;;12.14;83.84
15263;BME280;7733;51.554;13.590;2024-03-23T07:15:09;99181.00;;;12.25;84.01
15263;BME280;7733;51.554;13.590;2024-03-23T07:17:35;99184.03;;;11.69;88.14
15263;BME280;7733;51.554;13.590;2024-03-23T07:20:04;99190.59;;;12.04;86.23
15263;BME280;7733;51.554;13.590;2024-03-23T07:22:33;99184.41;;;12.27;84.49
15263;BME280;7733;51.554;13.590;2024-03-23T07:25:02;99168.31;;;12.35;83.68
15263;BME280;7733;51.554;13.590;2024-03-23T07:27:28;99153.78;;;12.26;83.94
15263;BME280;7733;51.554;13.590;2024-03-23T07:29:54;99144.47;;;12.17;84.36
15263;BME280;7733;51.554;13.590;2024-03-23T07:32:20;99141.06;;;12.15;84.47
15263;BME280;7733;51.554;13.590;2024-03-23T07:34:46;99133.50;;;12.08;85.73
15263;BME280;7733;51.554;13.590;2024-03-23T07:37:12;99130.47;;;12.39;84.10
15263;BME280;7733;51.554;13.590;2024-03-23T07:39:39;99134.34;;;12.30;84.09
15263;BME280;7733;51.554;13.590;2024-03-23T07:42:06;99124.56;;;12.12;85.01
15263;BME280;7733;51.554;13.590;2024-03-23T07:44:31;99111.81;;;12.03;85.71
15263;BME280;7733;51.554;13.590;2024-03-23T07:47:00;99091.47;;;11.86;86.69
15263;BME280;7733;51.554;13.590;2024-03-23T07:49:26;99098.25;;;11.46;88.34
15263;BME280;7733;51.554;13.590;2024-03-23T07:51:52;99083.34;;;11.00;91.17
15263;BME280;7733;51.554;13.590;2024-03-23T07:54:18;99072.47;;;11.56;89.79
15263;BME280;7733;51.554;13.590;2024-03-23T07:56:44;99075.34;;;11.50;89.32
15263;BME280;7733;51.554;13.590;2024-03-23T07:59:09;99076.44;;;11.90;88.35
15263;BME280;7733;51.554;13.590;2024-03-23T08:01:36;99071.44;;;11.83;88.38
15263;BME280;7733;51.554;13.590;2024-03-23T08:04:02;99082.69;;;11.42;90.31
15263;BME280;7733;51.554;13.590;2024-03-23T08:06:28;99067.75;;;11.87;87.72
15263;BME280;7733;51.554;13.590;2024-03-23T08:08:57;99061.38;;;11.71;88.79
15263;BME280;7733;51.554;13.590;2024-03-23T08:11:28;99045.66;;;12.13;87.26
15263;BME280;7733;51.554;13.590;2024-03-23T08:13:55;99031.25;;;11.81;88.52
15263;BME280;7733;51.554;13.590;2024-03-23T08:16:21;99027.41;;;11.67;89.76
15263;BME280;7733;51.554;13.590;2024-03-23T08:18:47;99019.94;;;11.78;89.35
15263;BME280;7733;51.554;13.590;2024-03-23T08:21:13;99022.34;;;12.06;88.55
15263;BME280;7733;51.554;13.590;2024-03-23T08:23:39;99019.34;;;11.49;91.14
15263;BME280;7733;51.554;13.590;2024-03-23T08:26:10;99001.88;;;11.92;89.61
15263;BME280;7733;51.554;13.590;2024-03-23T08:28:37;99007.84;;;11.74;90.24
15263;BME280;7733;51.554;13.590;2024-03-23T08:31:12;99007.13;;;11.70;90.20
15263;BME280;7733;51.554;13.590;2024-03-23T08:33:38;99000.56;;;11.82;89.69
15263;BME280;7733;51.554;13.590;2024-03-23T08:36:09;99000.44;;;12.05;88.58
15263;BME280;7733;51.554;13.590;2024-03-23T08:38:38;98991.00;;;11.36;90.71
15263;BME280;7733;51.554;13.590;2024-03-23T08:43:35;98973.31;;;11.41;92.19
15263;BME280;7733;51.554;13.590;2024-03-23T08:46:16;98991.22;;;11.31;92.54
15263;BME280;7733;51.554;13.590;2024-03-23T08:48:46;99004.66;;;11.00;94.57
15263;BME280;7733;51.554;13.590;2024-03-23T08:51:16;99010.13;;;10.71;95.75
15263;BME280;7733;51.554;13.590;2024-03-23T08:53:43;99008.94;;;11.03;93.63
15263;BME280;7733;51.554;13.590;2024-03-23T08:56:10;99010.41;;;11.10;93.39
15263;BME280;7733;51.554;13.590;2024-03-23T08:58:38;99020.56;;;10.72;94.99
15263;BME280;7733;51.554;13.590;2024-03-23T09:01:12;99019.72;;;10.72;94.81
15263;BME280;7733;51.554;13.590;2024-03-23T09:03:41;99027.44;;;10.00;98.29
15263;BME280;7733;51.554;13.590;2024-03-23T09:06:14;99047.84;;;9.90;100.00
15263;BME280;7733;51.554;13.590;2024-03-23T09:08:40;99055.72;;;9.90;99.40
15263;BME280;7733;51.554;13.590;2024-03-23T09:11:08;99067.19;;;9.86;99.34
15263;BME280;7733;51.554;13.590;2024-03-23T09:13:35;99096.69;;;9.65;100.00
15263;BME280;7733;51.554;13.590;2024-03-23T09:16:02;99109.28;;;9.52;100.00
15263;BME280;7733;51.554;13.590;2024-03-23T09:18:32;99120.09;;;9.41;100.00
15263;BME280;7733;51.554;13.590;2024-03-23T09:20:58;99137.47;;;9.13;100.00
15263;BME280;7733;51.554;13.590;2024-03-23T09:23:24;99168.91;;;9.11;100.00
15263;BME280;7733;51.554;13.590;2024-03-23T09:25:50;99173.69;;;8.96;100.00
15263;BME280;7733;51.554;13.590;2024-03-23T09:28:16;99165.50;;;8.75;100.00
15263;BME280;7733;51.554;13.590;2024-03-23T09:30:41;99151.34;;;8.14;100.00
15263;BME280;7733;51.554;13.590;2024-03-23T09:33:12;99173.66;;;7.90;100.00
15263;BME280;7733;51.554;13.590;2024-03-23T09:35:39;99188.69;;;7.81;100.00
15263;BME280;7733;51.554;13.590;2024-03-23T09:38:06;99196.59;;;7.76;100.00
15263;BME280;7733;51.554;13.590;2024-03-23T09:40:44;99208.63;;;7.85;100.00
15263;BME280;7733;51.554;13.590;2024-03-23T09:43:11;99204.34;;;7.81;100.00
15263;BME280;7733;51.554;13.590;2024-03-23T09:45:41;99189.94;;;7.63;100.00
15263;BME280;7733;51.554;13.590;2024-03-23T09:48:08;99179.47;;;7.65;100.00
15263;BME280;7733;51.554;13.590;2024-03-23T09:50:41;99205.91;;;7.48;100.00
15263;BME280;7733;51.554;13.590;2024-03-23T09:53:08;99233.22;;;7.30;100.00
15263;BME280;7733;51.554;13.590;2024-03-23T09:55:34;99251.22;;;7.44;100.00
15263;BME280;7733;51.554;13.590;2024-03-23T09:58:04;99269.00;;;7.23;100.00
15263;BME280;7733;51.554;13.590;2024-03-23T10:00:32;99273.97;;;7.36;100.00
15263;BME280;7733;51.554;13.590;2024-03-23T10:03:01;99276.88;;;7.19;100.00
15263;BME280;7733;51.554;13.590;2024-03-23T10:05:29;99291.13;;;7.03;100.00
15263;BME280;7733;51.554;13.590;2024-03-23T10:07:57;99293.00;;;6.93;100.00
15263;BME280;7733;51.554;13.590;2024-03-23T10:10:25;99312.31;;;6.81;100.00
15263;BME280;7733;51.554;13.590;2024-03-23T10:12:51;99311.63;;;6.70;100.00
15263;BME280;7733;51.554;13.590;2024-03-23T10:15:25;99306.19;;;6.84;100.00
15263;BME280;7733;51.554;13.590;2024-03-23T10:17:51;99294.75;;;6.92;100.00
15263;BME280;7733;51.554;13.590;2024-03-23T10:20:22;99320.81;;;6.92;100.00
15263;BME280;7733;51.554;13.590;2024-03-23T10:22:49;99323.59;;;6.83;100.00
15263;BME280;7733;51.554;13.590;2024-03-23T10:25:17;99313.94;;;6.88;100.00
15263;BME280;7733;51.554;13.590;2024-03-23T10:27:43;99320.78;;;6.94;100.00
15263;BME280;7733;51.554;13.590;2024-03-23T10:30:11;99330.25;;;6.98;100.00
15263;BME280;7733;51.554;13.590;2024-03-23T10:32:38;99340.66;;;6.99;100.00
15263;BME280;7733;51.554;13.590;2024-03-23T10:35:20;99360.09;;;6.82;100.00
15263;BME280;7733;51.554;13.590;2024-03-23T10:37:49;99372.09;;;6.90;100.00
15263;BME280;7733;51.554;13.590;2024-03-23T10:40:17;99375.13;;;6.63;100.00
15263;BME280;7733;51.554;13.590;2024-03-23T10:42:47;99379.19;;;6.81;100.00
15263;BME280;7733;51.554;13.590;2024-03-23T10:45:13;99388.19;;;6.61;100.00
15263;BME280;7733;51.554;13.590;2024-03-23T10:47:39;99397.03;;;6.50;100.00
15263;BME280;7733;51.554;13.590;2024-03-23T10:50:05;99408.34;;;6.47;100.00
15263;BME280;7733;51.554;13.590;2024-03-23T10:52:34;99416.34;;;6.32;100.00
15263;BME280;7733;51.554;13.590;2024-03-23T10:55:04;99432.09;;;6.23;100.00
15263;BME280;7733;51.554;13.590;2024-03-23T10:57:42;99426.66;;;6.39;100.00
15263;BME280;7733;51.554;13.590;2024-03-23T11:00:11;99437.78;;;6.54;100.00
15263;BME280;7733;51.554;13.590;2024-03-23T11:02:37;99433.44;;;6.53;100.00
15263;BME280;7733;51.554;13.590;2024-03-23T11:07:52;99452.50;;;6.55;100.00
15263;BME280;7733;51.554;13.590;2024-03-23T11:10:36;99472.13;;;6.83;100.00
15263;BME280;7733;51.554;13.590;2024-03-23T11:13:22;99498.44;;;6.65;100.00
15263;BME280;7733;51.554;13.590;2024-03-23T11:15:47;99511.25;;;6.79;100.00
15263;BME280;7733;51.554;13.590;2024-03-23T11:18:20;99517.41;;;6.75;100.00
15263;BME280;7733;51.554;13.590;2024-03-23T11:20:46;99519.00;;;6.86;100.00
15263;BME280;7733;51.554;13.590;2024-03-23T11:23:28;99519.88;;;6.87;100.00
15263;BME280;7733;51.554;13.590;2024-03-23T11:25:54;99529.34;;;6.92;100.00
15263;BME280;7733;51.554;13.590;2024-03-23T11:28:20;99548.31;;;7.04;100.00
15263;BME280;7733;51.554;13.590;2024-03-23T11:30:47;99547.94;;;6.65;100.00
15263;BME280;7733;51.554;13.590;2024-03-23T11:33:13;99549.50;;;6.78;100.00
15263;BME280;7733;51.554;13.590;2024-03-23T11:35:40;99549.25;;;6.96;100.00
15263;BME280;7733;51.554;13.590;2024-03-23T11:38:10;99555.50;;;6.86;100.00
15263;BME280;7733;51.554;13.590;2024-03-23T11:40:45;99552.53;;;7.12;100.00
15263;BME280;7733;51.554;13.590;2024-03-23T11:43:20;99551.09;;;6.90;100.00
15263;BME280;7733;51.554;13.590;2024-03-23T11:45:51;99548.88;;;7.25;100.00
15263;BME280;7733;51.554;13.590;2024-03-23T11:48:20;99549.22;;;7.01;100.00
15263;BME280;7733;51.554;13.590;2024-03-23T11:50:55;99565.91;;;6.86;100.00
15263;BME280;7733;51.554;13.590;2024-03-23T11:53:22;99565.75;;;6.98;100.00
15263;BME280;7733;51.554;13.590;2024-03-23T11:55:57;99564.97;;;6.92;100.00
15263;BME280;7733;51.554;13.590;2024-03-23T11:58:24;99574.63;;;6.85;100.00
15263;BME280;7733;51.554;13.590;2024-03-23T12:00:51;99579.53;;;7.10;100.00
15263;BME280;7733;51.554;13.590;2024-03-23T12:03:18;99577.84;;;7.06;100.00
15263;BME280;7733;51.554;13.590;2024-03-23T12:05:50;99582.34;;;6.93;100.00
15263;BME280;7733;51.554;13.590;2024-03-23T12:08:20;99594.16;;;7.18;100.00
15263;BME280;7733;51.554;13.590;2024-03-23T12:11:15;99586.75;;;7.52;100.00
15263;BME280;7733;51.554;13.590;2024-03-23T12:13:44;99589.72;;;7.28;100.00
15263;BME280;7733;51.554;13.590;2024-03-23T12:16:19;99581.91;;;7.26;100.00
15263;BME280;7733;51.554;13.590;2024-03-23T12:18:47;99589.19;;;7.00;100.00
15263;BME280;7733;51.554;13.590;2024-03-23T12:21:15;99586.50;;;7.08;100.00
15263;BME280;7733;51.554;13.590;2024-03-23T12:23:42;99598.47;;;7.24;100.00
15263;BME280;7733;51.554;13.590;2024-03-23T12:26:11;99591.19;;;7.47;100.00
15263;BME280;7733;51.554;13.590;2024-03-23T12:28:38;99594.09;;;7.24;100.00
15263;BME280;7733;51.554;13.590;2024-03-23T12:31:04;99591.53;;;7.20;100.00
15263;BME280;7733;51.554;13.590;2024-03-23T12:33:31;99590.81;;;7.10;100.00
15263;BME280;7733;51.554;13.590;2024-03-23T12:35:56;99581.72;;;7.39;100.00
15263;BME280;7733;51.554;13.590;2024-03-23T12:38:22;99577.03;;;7.63;100.00
15263;BME280;7733;51.554;13.590;2024-03-23T12:40:51;99568.47;;;7.52;99.94
15263;BME280;7733;51.554;13.590;2024-03-23T12:43:18;99571.59;;;7.76;99.48
15263;BME280;7733;51.554;13.590;2024-03-23T12:45:49;99564.59;;;7.78;99.30
15263;BME280;7733;51.554;13.590;2024-03-23T12:48:16;99556.47;;;7.96;99.64
15263;BME280;7733;51.554;13.590;2024-03-23T12:50:42;99560.56;;;8.12;98.11
15263;BME280;7733;51.554;13.590;2024-03-23T12:53:08;99560.72;;;8.03;97.53
15263;BME280;7733;51.554;13.590;2024-03-23T12:55:37;99569.28;;;8.11;97.80
15263;BME280;7733;51.554;13.590;2024-03-23T12:58:03;99566.84;;;8.02;96.77
15263;BME280;7733;51.554;13.590;2024-03-23T13:00:30;99561.94;;;8.32;94.82
15263;BME280;7733;51.554;13.590;2024-03-23T13:02:55;99559.03;;;8.50;95.08
15263;BME280;7733;51.554;13.590;2024-03-23T13:05:21;99557.47;;;8.84;93.83
15263;BME280;7733;51.554;13.590;2024-03-23T13:07:47;99563.44;;;8.91;94.45
15263;BME280;7733;51.554;13.590;2024-03-23T13:10:13;99562.59;;;8.46;93.09
15263;BME280;7733;51.554;13.590;2024-03-23T13:12:40;99560.72;;;8.96;93.34
15263;BME280;7733;51.554;13.590;2024-03-23T13:15:06;99566.06;;;8.91;91.89
15263;BME280;7733;51.554;13.590;2024-03-23T13:17:31;99574.19;;;8.76;92.10
15263;BME280;7733;51.554;13.590;2024-03-23T13:19:57;99575.53;;;8.97;92.71
15263;BME280;7733;51.554;13.590;2024-03-23T13:22:23;99581.56;;;8.99;91.33
15263;BME280;7733;51.554;13.590;2024-03-23T13:24:48;99574.75;;;8.92;91.85
15263;BME280;7733;51.554;13.590;2024-03-23T13:27:14;99575.69;;;9.31;91.68
15263;BME280;7733;51.554;13.590;2024-03-23T13:29:40;99573.38;;;9.15;92.55
15263;BME280;7733;51.554;13.590;2024-03-23T13:32:08;99578.19;;;8.94;89.73
15263;BME280;7733;51.554;13.590;2024-03-23T13:34:34;99581.25;;;9.14;91.67
15263;BME280;7733;51.554;13.590;2024-03-23T13:37:00;99565.31;;;9.26;89.56
15263;BME280;7733;51.554;13.590;2024-03-23T13:39:26;99563.22;;;9.40;88.27
15263;BME280;7733;51.554;13.590;2024-03-23T13:41:55;99547.31;;;9.87;87.71
15263;BME280;7733;51.554;13.590;2024-03-23T13:44:21;99534.38;;;9.79;85.74
15263;BME280;7733;51.554;13.590;2024-03-23T13:46:47;99545.31;;;9.96;86.68
15263;BME280;7733;51.554;13.590;2024-03-23T13:49:27;99538.72;;;10.16;85.48
15263;BME280;7733;51.554;13.590;2024-03-23T13:51:57;99530.38;;;10.01;84.16
15263;BME280;7733;51.554;13.590;2024-03-23T13:54:27;99545.47;;;10.26;82.37
15263;BME280;7733;51.554;13.590;2024-03-23T13:56:55;99547.06;;;9.96;82.50
15263;BME280;7733;51.554;13.590;2024-03-23T13:59:21;99557.44;;;10.36;82.28
15263;BME280;7733;51.554;13.590;2024-03-23T14:01:49;99556.00;;;10.57;79.84